createdAt,value
2019-01-19T00:02:10.102Z,86.50
2019-01-19T00:05:55.784Z,86.80
2019-01-19T00:09:00.869Z,86.90
2019-01-19T00:12:20.526Z,86.90
2019-01-19T00:15:26.296Z,86.30
2019-01-19T00:19:13.089Z,86.50
2019-01-19T00:22:34.330Z,85.60
2019-01-19T00:26:16.973Z,85.80
2019-01-19T00:29:41.818Z,85.60
2019-01-19T00:32:52.101Z,85.30
2019-01-19T00:36:04.266Z,85.00
2019-01-19T00:39:45.315Z,84.90
2019-01-19T00:43:01.926Z,85.90
2019-01-19T00:46:23.738Z,85.80
2019-01-19T00:49:30.667Z,85.00
2019-01-19T00:53:08.520Z,85.30
2019-01-19T00:57:01.302Z,86.60
2019-01-19T00:59:42.986Z,87.80
2019-01-19T01:02:58.290Z,87.90
2019-01-19T01:06:07.805Z,86.90
2019-01-19T01:09:25.858Z,87.60
2019-01-19T01:13:20.120Z,87.70
2019-01-19T01:17:02.529Z,88.30
2019-01-19T01:20:32.980Z,87.60
2019-01-19T01:23:48.286Z,87.70
2019-01-19T01:27:03.146Z,87.60
2019-01-19T01:30:38.334Z,88.00
2019-01-19T01:33:56.630Z,88.20
2019-01-19T01:37:25.248Z,87.50
2019-01-19T01:40:59.548Z,86.70
2019-01-19T01:43:53.245Z,85.90
2019-01-19T01:47:32.555Z,84.70
2019-01-19T01:50:43.288Z,84.20
2019-01-19T01:54:15.437Z,82.60
2019-01-19T01:56:48.017Z,82.80
2019-01-19T01:59:59.775Z,83.40
2019-01-19T02:03:33.340Z,84.60
2019-01-19T02:07:00.902Z,84.60
2019-01-19T02:10:31.765Z,85.30
2019-01-19T02:14:06.311Z,83.80
2019-01-19T02:17:38.385Z,84.60
2019-01-19T02:21:02.987Z,85.00
2019-01-19T02:24:23.700Z,86.70
2019-01-19T02:28:07.916Z,87.70
2019-01-19T02:31:38.644Z,88.60
2019-01-19T02:35:37.125Z,89.70
2019-01-19T02:39:05.128Z,90.50
2019-01-19T02:42:26.334Z,90.70
2019-01-19T02:45:39.404Z,90.50
2019-01-19T02:49:27.111Z,90.80
2019-01-19T02:52:41.610Z,90.20
2019-01-19T02:56:15.830Z,88.90
2019-01-19T02:59:21.271Z,87.60
2019-01-19T03:02:46.872Z,87.10
2019-01-19T03:05:58.581Z,86.90
2019-01-19T03:09:16.347Z,86.30
2019-01-19T03:12:52.595Z,86.60
2019-01-19T03:16:33.689Z,88.10
2019-01-19T03:20:07.546Z,89.30
2019-01-19T03:23:56.041Z,88.40
2019-01-19T03:27:03.251Z,87.60
2019-01-19T03:30:46.337Z,87.90
2019-01-19T03:34:22.200Z,88.50
2019-01-19T03:37:55.349Z,87.80
2019-01-19T03:40:50.713Z,87.70
2019-01-19T03:44:23.878Z,87.80
2019-01-19T03:47:59.169Z,89.30
2019-01-19T03:51:13.581Z,87.80
2019-01-19T03:54:27.646Z,88.30
2019-01-19T03:58:02.393Z,86.40
2019-01-19T04:01:23.198Z,86.20
2019-01-19T04:04:40.914Z,86.70
2019-01-19T04:08:02.650Z,86.60
2019-01-19T04:11:21.562Z,87.10
2019-01-19T04:15:01.624Z,87.20
2019-01-19T04:18:29.329Z,87.10
2019-01-19T04:22:06.238Z,87.70
2019-01-19T04:25:06.096Z,88.10
2019-01-19T04:27:38.576Z,86.80
2019-01-19T04:30:13.445Z,86.70
2019-01-19T04:32:46.218Z,86.40
2019-01-19T04:35:18.643Z,86.90
2019-01-19T04:37:51.124Z,86.80
2019-01-19T04:40:23.448Z,86.80
2019-01-19T04:42:56.227Z,87.50
2019-01-19T04:45:28.715Z,87.30
2019-01-19T04:48:01.296Z,87.00
2019-01-19T04:50:33.624Z,86.30
2019-01-19T04:53:06.304Z,87.00
2019-01-19T04:55:38.876Z,86.90
2019-01-19T04:58:11.452Z,86.70
2019-01-19T05:00:43.875Z,85.50
2019-01-19T05:03:16.255Z,84.20
2019-01-19T05:05:48.577Z,84.70
2019-01-19T05:08:21.042Z,84.40
2019-01-19T05:10:53.572Z,84.80
2019-01-19T05:13:25.961Z,85.70
2019-01-19T05:15:58.282Z,85.40
2019-01-19T05:18:30.660Z,84.70
2019-01-19T05:21:03.289Z,84.20
2019-01-19T05:23:35.856Z,84.30
2019-01-19T05:26:08.381Z,84.50
2019-01-19T05:28:40.742Z,84.30
2019-01-19T05:31:13.268Z,83.20
2019-01-19T05:33:45.635Z,83.10
2019-01-19T05:36:18.068Z,83.90
2019-01-19T05:38:50.644Z,85.30
2019-01-19T05:41:23.187Z,85.30
2019-01-19T05:43:55.567Z,85.30
2019-01-19T05:46:27.896Z,85.60
2019-01-19T05:49:01.315Z,84.10
2019-01-19T05:51:33.650Z,84.60
2019-01-19T05:54:06.467Z,85.70
2019-01-19T05:56:38.946Z,86.60
2019-01-19T05:59:11.372Z,87.80
2019-01-19T06:01:43.814Z,87.80
2019-01-19T06:04:16.298Z,87.70
2019-01-19T06:06:48.731Z,87.60
2019-01-19T06:09:21.099Z,88.00
2019-01-19T06:11:53.512Z,88.90
2019-01-19T06:14:26.109Z,88.40
2019-01-19T06:16:58.632Z,88.80
2019-01-19T06:19:31.513Z,89.50
2019-01-19T06:22:04.247Z,90.00
2019-01-19T06:24:36.636Z,89.90
2019-01-19T06:27:09.062Z,89.50
2019-01-19T06:29:41.635Z,88.50
2019-01-19T06:32:14.068Z,88.40
2019-01-19T06:34:46.538Z,87.50
2019-01-19T06:37:18.950Z,85.90
2019-01-19T06:39:51.438Z,85.50
2019-01-19T06:42:23.950Z,84.60
2019-01-19T06:44:56.319Z,84.30
2019-01-19T06:47:28.753Z,83.70
2019-01-19T06:50:01.129Z,82.50
2019-01-19T06:52:33.553Z,82.10
2019-01-19T06:55:06.511Z,82.80
2019-01-19T06:57:39.043Z,83.00
2019-01-19T07:00:15.199Z,82.80
2019-01-19T07:02:47.829Z,83.10
2019-01-19T07:05:20.505Z,83.70
2019-01-19T07:07:53.131Z,84.50
2019-01-19T07:10:27.262Z,84.90
2019-01-19T07:12:59.708Z,86.50
2019-01-19T07:15:32.190Z,86.30
2019-01-19T07:18:04.627Z,86.30
2019-01-19T07:20:37.025Z,85.40
2019-01-19T07:23:09.546Z,84.30
2019-01-19T07:25:43.333Z,82.20
2019-01-19T07:28:15.757Z,77.80
2019-01-19T07:30:48.145Z,74.30
2019-01-19T07:33:20.571Z,71.00
2019-01-19T07:35:53.308Z,70.60
2019-01-19T07:38:25.604Z,70.80
2019-01-19T07:40:58.121Z,64.70
2019-01-19T07:43:30.290Z,56.60
2019-01-19T07:46:03.271Z,51.80
2019-01-19T07:48:35.611Z,51.40
2019-01-19T07:51:07.903Z,52.90
2019-01-19T07:53:40.479Z,54.50
2019-01-19T07:56:12.987Z,57.00
2019-01-19T07:58:45.349Z,60.50
2019-01-19T08:01:17.811Z,64.20
2019-01-19T08:03:50.240Z,66.70
2019-01-19T08:06:22.618Z,69.60
2019-01-19T08:08:55.147Z,71.60
2019-01-19T08:11:27.498Z,73.80
2019-01-19T08:13:59.771Z,72.40
2019-01-19T08:16:32.194Z,73.60
2019-01-19T08:19:04.661Z,72.60
2019-01-19T08:21:36.880Z,70.40
2019-01-19T08:24:09.244Z,69.80
2019-01-19T08:26:41.454Z,69.90
2019-01-19T08:29:13.813Z,67.80
2019-01-19T08:31:46.224Z,59.20
2019-01-19T08:34:18.568Z,53.10
2019-01-19T08:36:50.991Z,46.20
2019-01-19T08:39:23.285Z,38.40
2019-01-19T08:41:55.773Z,33.10
2019-01-19T08:44:28.200Z,29.80
2019-01-19T08:47:00.572Z,27.80
2019-01-19T08:49:32.999Z,26.70
2019-01-19T08:52:05.701Z,26.30
2019-01-19T08:54:38.165Z,27.60
2019-01-19T08:57:10.833Z,29.50
2019-01-19T08:59:43.358Z,31.60
2019-01-19T09:02:15.823Z,33.10
2019-01-19T09:04:48.143Z,35.00
2019-01-19T09:07:20.604Z,35.70
2019-01-19T09:09:52.806Z,36.70
2019-01-19T09:12:25.030Z,37.30
2019-01-19T09:14:57.198Z,39.50
2019-01-19T09:17:29.518Z,39.80
2019-01-19T09:20:02.700Z,40.00
2019-01-19T09:22:35.002Z,39.80
2019-01-19T09:25:08.696Z,40.80
2019-01-19T09:27:41.201Z,41.80
2019-01-19T09:30:19.460Z,44.80
2019-01-19T09:32:52.143Z,47.20
2019-01-19T09:35:24.609Z,48.80
2019-01-19T09:37:57.113Z,51.70
2019-01-19T09:40:29.368Z,53.10
2019-01-19T09:43:01.867Z,54.50
2019-01-19T09:45:34.345Z,55.00
2019-01-19T09:48:07.015Z,56.20
2019-01-19T09:50:39.477Z,57.10
2019-01-19T09:53:12.084Z,57.30
2019-01-19T09:55:44.293Z,58.10
2019-01-19T09:58:16.703Z,59.50
2019-01-19T10:00:48.970Z,58.90
2019-01-19T10:03:21.239Z,60.00
2019-01-19T10:05:53.508Z,59.50
2019-01-19T10:08:25.913Z,59.90
2019-01-19T10:10:58.459Z,62.30
2019-01-19T10:13:30.756Z,61.90
2019-01-19T10:16:03.022Z,59.70
2019-01-19T10:18:35.817Z,61.20
2019-01-19T10:21:08.358Z,60.60
2019-01-19T10:23:40.667Z,61.30
2019-01-19T10:26:12.947Z,59.90
2019-01-19T10:28:46.909Z,61.30
2019-01-19T10:31:19.288Z,59.70
2019-01-19T10:33:51.697Z,59.80
2019-01-19T10:36:24.836Z,59.00
2019-01-19T10:38:57.728Z,60.20
2019-01-19T10:41:29.984Z,59.90
2019-01-19T10:44:02.197Z,59.50
2019-01-19T10:46:35.164Z,59.20
2019-01-19T10:49:07.581Z,58.90
2019-01-19T10:51:39.940Z,58.40
2019-01-19T10:54:12.452Z,57.90
2019-01-19T10:56:44.961Z,56.70
2019-01-19T10:59:17.274Z,55.50
2019-01-19T11:01:49.632Z,54.70
2019-01-19T11:04:22.048Z,54.60
2019-01-19T11:06:54.346Z,55.70
2019-01-19T11:09:26.636Z,54.80
2019-01-19T11:11:58.883Z,55.10
2019-01-19T11:14:31.289Z,53.40
2019-01-19T11:17:03.556Z,53.70
2019-01-19T11:19:35.769Z,54.20
2019-01-19T11:22:08.237Z,53.60
2019-01-19T11:24:40.441Z,51.70
2019-01-19T11:27:12.690Z,51.90
2019-01-19T11:29:45.102Z,51.80
2019-01-19T11:32:17.367Z,50.80
2019-01-19T11:34:49.579Z,51.10
2019-01-19T11:37:22.037Z,51.80
2019-01-19T11:39:54.242Z,52.30
2019-01-19T11:42:26.506Z,51.80
2019-01-19T11:44:58.714Z,50.90
2019-01-19T11:47:30.977Z,50.70
2019-01-19T11:50:03.702Z,51.40
2019-01-19T11:52:36.188Z,50.50
2019-01-19T11:55:10.358Z,51.20
2019-01-19T11:57:42.619Z,49.60
2019-01-19T12:00:19.539Z,49.00
2019-01-19T12:02:52.051Z,48.20
2019-01-19T12:05:24.450Z,48.20
2019-01-19T12:07:56.908Z,47.90
2019-01-19T12:10:33.093Z,47.80
2019-01-19T12:13:05.554Z,47.00
2019-01-19T12:15:37.774Z,45.40
2019-01-19T12:18:10.986Z,43.80
2019-01-19T12:20:53.741Z,40.70
2019-01-19T12:23:26.005Z,39.10
2019-01-19T12:25:58.345Z,36.00
2019-01-19T12:28:30.777Z,32.70
2019-01-19T12:31:03.443Z,31.20
2019-01-19T12:33:35.968Z,30.00
2019-01-19T12:36:08.971Z,29.20
2019-01-19T12:38:41.401Z,27.80
2019-01-19T12:41:13.870Z,27.80
2019-01-19T12:43:46.353Z,25.30
2019-01-19T12:46:18.840Z,24.50
2019-01-19T12:48:51.165Z,24.20
2019-01-19T12:51:23.629Z,23.30
2019-01-19T12:53:56.014Z,25.10
2019-01-19T12:56:28.618Z,24.30
2019-01-19T12:59:01.247Z,22.90
2019-01-19T13:01:33.824Z,22.40
2019-01-19T13:04:06.452Z,22.30
2019-01-19T13:06:55.130Z,21.90
2019-01-19T13:09:31.833Z,22.10
2019-01-19T13:12:42.972Z,22.10
2019-01-19T13:16:16.753Z,22.50
2019-01-19T13:19:35.097Z,21.70
2019-01-19T13:23:09.774Z,21.40
2019-01-19T13:26:48.661Z,23.00
2019-01-19T13:30:19.803Z,22.00
2019-01-19T13:33:28.683Z,22.40
2019-01-19T13:37:00.455Z,22.10
2019-01-19T13:40:03.282Z,22.70
2019-01-19T13:43:18.585Z,23.00
2019-01-19T13:46:27.640Z,24.80
2019-01-19T13:49:55.512Z,24.70
2019-01-19T13:53:14.096Z,25.90
2019-01-19T13:56:55.343Z,26.40
2019-01-19T14:00:18.707Z,26.20
2019-01-19T14:03:37.792Z,26.30
2019-01-19T14:07:13.014Z,26.40
2019-01-19T14:10:21.036Z,30.30
2019-01-19T14:13:56.423Z,34.30
2019-01-19T14:17:28.399Z,35.30
2019-01-19T14:20:37.724Z,37.50
2019-01-19T14:23:58.177Z,39.20
2019-01-19T14:27:59.742Z,41.90
2019-01-19T14:31:24.179Z,42.60
2019-01-19T14:35:07.464Z,44.20
2019-01-19T14:38:19.452Z,44.90
2019-01-19T14:41:42.093Z,45.80
2019-01-19T14:45:22.292Z,45.60
2019-01-19T14:48:38.250Z,48.40
2019-01-19T14:52:13.356Z,47.80
2019-01-19T14:55:33.238Z,48.80
2019-01-19T14:59:04.052Z,48.80
2019-01-19T15:02:49.577Z,48.40
2019-01-19T15:06:14.217Z,47.30
2019-01-19T15:09:25.916Z,48.00
2019-01-19T15:12:57.403Z,48.30
2019-01-19T15:16:26.957Z,48.10
2019-01-19T15:20:02.209Z,49.00
2019-01-19T15:23:25.668Z,50.50
2019-01-19T15:27:01.388Z,52.50
2019-01-19T15:30:15.305Z,53.60
2019-01-19T15:33:46.211Z,53.80
2019-01-19T15:36:36.451Z,52.80
2019-01-19T15:39:37.945Z,53.30
2019-01-19T15:43:14.529Z,54.30
2019-01-19T15:46:41.074Z,54.10
2019-01-19T15:49:57.358Z,53.60
2019-01-19T15:53:15.280Z,52.30
2019-01-19T15:56:40.574Z,51.90
2019-01-19T16:00:12.604Z,52.00
2019-01-19T16:03:54.597Z,51.90
2019-01-19T16:07:07.978Z,52.10
2019-01-19T16:10:46.387Z,52.60
2019-01-19T16:14:19.704Z,52.70
2019-01-19T16:17:48.438Z,52.90
2019-01-19T16:21:10.404Z,54.30
2019-01-19T16:24:16.170Z,55.90
2019-01-19T16:27:41.353Z,57.30
2019-01-19T16:31:08.775Z,58.90
2019-01-19T16:34:22.162Z,59.00
2019-01-19T16:37:15.506Z,60.00
2019-01-19T16:41:15.493Z,60.60
2019-01-19T16:44:42.054Z,59.60
2019-01-19T16:48:13.816Z,58.40
2019-01-19T16:51:52.159Z,59.50
2019-01-19T16:55:21.976Z,61.20
2019-01-19T16:58:39.153Z,60.90
2019-01-19T17:01:45.675Z,61.10
2019-01-19T17:04:45.185Z,60.80
2019-01-19T17:08:26.321Z,61.30
2019-01-19T17:11:58.615Z,61.80
2019-01-19T17:15:27.988Z,61.20
2019-01-19T17:18:21.741Z,60.80
2019-01-19T17:22:14.901Z,61.00
2019-01-19T17:25:31.538Z,60.70
2019-01-19T17:28:39.086Z,60.40
2019-01-19T17:32:24.716Z,60.60
2019-01-19T17:36:20.627Z,60.30
2019-01-19T17:40:03.089Z,60.50
2019-01-19T17:43:45.597Z,60.60
2019-01-19T17:46:42.190Z,60.20
2019-01-19T17:49:42.461Z,60.90
2019-01-19T17:52:38.747Z,61.40
2019-01-19T17:56:36.389Z,61.50
2019-01-19T18:00:00.647Z,61.40
2019-01-19T18:03:20.159Z,62.50
2019-01-19T18:06:25.669Z,63.40
2019-01-19T18:10:01.295Z,63.50
2019-01-19T18:13:30.415Z,63.80
2019-01-19T18:17:25.820Z,65.00
2019-01-19T18:20:59.494Z,65.90
2019-01-19T18:24:25.778Z,66.80
2019-01-19T18:28:10.793Z,67.50
2019-01-19T18:31:42.625Z,68.00
2019-01-19T18:35:05.710Z,70.20
2019-01-19T18:39:01.472Z,70.90
2019-01-19T18:41:55.773Z,71.20
2019-01-19T18:45:30.626Z,71.80
2019-01-19T18:48:49.707Z,71.90
2019-01-19T18:52:24.898Z,71.90
2019-01-19T18:55:57.761Z,72.10
2019-01-19T18:59:18.681Z,71.70
2019-01-19T19:02:38.967Z,72.10
2019-01-19T19:06:08.317Z,72.60
2019-01-19T19:09:50.450Z,72.60
2019-01-19T19:13:29.782Z,72.60
2019-01-19T19:16:17.107Z,73.40
2019-01-19T19:19:29.017Z,73.50
2019-01-19T19:22:29.949Z,73.70
2019-01-19T19:25:52.247Z,74.50
2019-01-19T19:29:33.021Z,74.90
2019-01-19T19:32:59.846Z,74.80
2019-01-19T19:36:37.031Z,74.70
2019-01-19T19:40:09.947Z,74.90
2019-01-19T19:43:49.421Z,76.10
2019-01-19T19:46:52.839Z,76.40
2019-01-19T19:50:20.131Z,76.40
2019-01-19T19:52:52.644Z,76.10
2019-01-19T19:55:22.101Z,76.10
2019-01-19T19:57:54.456Z,76.20
2019-01-19T20:00:27.436Z,76.40
2019-01-19T20:02:59.965Z,76.50
2019-01-19T20:05:32.642Z,76.50
2019-01-19T20:08:05.268Z,76.30
2019-01-19T20:10:37.659Z,76.00
2019-01-19T20:13:10.198Z,76.10
2019-01-19T20:15:42.680Z,76.00
2019-01-19T20:18:15.125Z,76.20
2019-01-19T20:20:47.798Z,76.40
2019-01-19T20:23:20.227Z,76.40
2019-01-19T20:25:52.708Z,76.50
2019-01-19T20:28:25.145Z,76.40
2019-01-19T20:30:57.524Z,76.10
2019-01-19T20:33:30.074Z,75.80
2019-01-19T20:36:02.651Z,75.70
2019-01-19T20:38:34.983Z,75.60
2019-01-19T20:41:07.660Z,75.50
2019-01-19T20:43:40.200Z,75.60
2019-01-19T20:46:12.581Z,76.30
2019-01-19T20:48:45.119Z,77.00
2019-01-19T20:51:17.503Z,77.60
2019-01-19T20:53:49.936Z,78.10
2019-01-19T20:56:22.466Z,78.60
2019-01-19T20:58:55.093Z,78.80
2019-01-19T21:01:27.681Z,79.00
2019-01-19T21:04:00.107Z,78.90
2019-01-19T21:06:32.592Z,79.30
2019-01-19T21:09:08.761Z,79.60
2019-01-19T21:11:41.571Z,79.80
2019-01-19T21:14:14.003Z,80.10
2019-01-19T21:16:46.586Z,80.60
2019-01-19T21:19:18.913Z,80.20
2019-01-19T21:21:51.493Z,80.20
2019-01-19T21:24:23.824Z,80.60
2019-01-19T21:26:56.303Z,80.10
2019-01-19T21:29:28.730Z,80.20
2019-01-19T21:32:01.207Z,79.90
2019-01-19T21:34:33.834Z,79.90
2019-01-19T21:37:06.535Z,80.10
2019-01-19T21:39:38.859Z,79.80
2019-01-19T21:42:11.338Z,80.30
2019-01-19T21:44:43.659Z,80.50
2019-01-19T21:47:16.051Z,80.40
2019-01-19T21:49:48.382Z,80.90
2019-01-19T21:52:20.864Z,81.30
2019-01-19T21:54:53.401Z,81.50
2019-01-19T21:57:25.833Z,82.10
2019-01-19T21:59:58.262Z,82.30
2019-01-19T22:02:30.642Z,82.70
2019-01-19T22:05:03.167Z,82.40
2019-01-19T22:07:35.774Z,82.90
2019-01-19T22:10:11.890Z,82.80
2019-01-19T22:12:44.370Z,83.20
2019-01-19T22:15:18.600Z,83.20
2019-01-19T22:17:50.979Z,83.00
2019-01-19T22:20:23.515Z,83.60
2019-01-19T22:22:56.092Z,82.80
2019-01-19T22:25:28.415Z,83.50
2019-01-19T22:28:00.797Z,83.60
2019-01-19T22:30:33.329Z,83.80
2019-01-19T22:33:06.206Z,84.00
2019-01-19T22:35:38.838Z,84.30
2019-01-19T22:38:11.331Z,84.70
2019-01-19T22:40:43.853Z,84.00
2019-01-19T22:43:21.672Z,83.90
2019-01-19T22:45:54.102Z,83.90
2019-01-19T22:48:26.579Z,83.80
2019-01-19T22:50:59.012Z,84.00
2019-01-19T22:53:31.600Z,84.20
2019-01-19T22:56:04.039Z,84.20
2019-01-19T22:58:36.562Z,84.70
2019-01-19T23:01:36.080Z,84.90
2019-01-19T23:04:09.004Z,84.70
2019-01-19T23:06:41.538Z,85.20
2019-01-19T23:09:14.215Z,85.30
2019-01-19T23:11:46.948Z,85.00
2019-01-19T23:14:19.428Z,84.80
2019-01-19T23:16:51.858Z,85.10
2019-01-19T23:19:24.329Z,85.10
2019-01-19T23:21:56.754Z,85.30
2019-01-19T23:24:29.428Z,85.30
2019-01-19T23:27:11.052Z,85.50
2019-01-19T23:29:43.436Z,86.00
2019-01-19T23:32:15.867Z,86.10
2019-01-19T23:34:48.299Z,86.40
2019-01-19T23:37:20.631Z,86.70
2019-01-19T23:39:53.004Z,86.90
2019-01-19T23:42:25.434Z,87.00
2019-01-19T23:44:57.804Z,87.20
2019-01-19T23:47:30.331Z,87.10
2019-01-19T23:50:02.701Z,87.00
2019-01-19T23:52:35.139Z,86.90
2019-01-19T23:55:07.998Z,87.10
2019-01-19T23:57:40.323Z,87.20
